createdAt,value
2017-03-24T00:00:52.364Z,32.48
2017-03-24T00:01:50.557Z,34.55
2017-03-24T00:02:48.764Z,35.95
2017-03-24T00:03:47.735Z,38.18
2017-03-24T00:04:45.933Z,34.05
2017-03-24T00:05:44.156Z,35.40
2017-03-24T00:06:42.357Z,35.80
2017-03-24T00:07:40.605Z,37.65
2017-03-24T00:08:39.561Z,36.75
2017-03-24T00:09:37.802Z,34.72
2017-03-24T00:10:36.073Z,35.98
2017-03-24T00:11:35.044Z,35.58
2017-03-24T00:12:33.261Z,35.75
2017-03-24T00:13:32.204Z,35.50
2017-03-24T00:14:30.433Z,35.30
2017-03-24T00:15:29.433Z,35.48
2017-03-24T00:16:27.673Z,34.30
2017-03-24T00:17:25.901Z,36.48
2017-03-24T00:18:24.182Z,34.33
2017-03-24T00:19:22.452Z,38.42
2017-03-24T00:20:21.461Z,37.65
2017-03-24T00:21:19.705Z,38.07
2017-03-24T00:22:18.683Z,36.92
2017-03-24T00:23:16.925Z,36.60
2017-03-24T00:24:15.161Z,34.97
2017-03-24T00:25:13.409Z,33.57
2017-03-24T00:26:11.636Z,39.32
2017-03-24T00:27:09.857Z,35.72
2017-03-24T00:28:08.053Z,37.02
2017-03-24T00:29:06.297Z,37.25
2017-03-24T00:30:04.521Z,37.85
2017-03-24T00:31:02.737Z,37.95
2017-03-24T00:32:00.973Z,40.02
2017-03-24T00:32:59.194Z,35.95
2017-03-24T00:33:57.394Z,41.35
2017-03-24T00:34:55.628Z,38.93
2017-03-24T00:35:53.837Z,39.47
2017-03-24T00:36:52.087Z,44.72
2017-03-24T00:37:50.304Z,32.77
2017-03-24T00:38:48.555Z,41.78
2017-03-24T00:39:46.801Z,40.32
2017-03-24T00:40:45.017Z,43.30
2017-03-24T00:41:43.257Z,40.20
2017-03-24T00:42:41.446Z,40.07
2017-03-24T00:43:39.642Z,42.83
2017-03-24T00:44:37.905Z,41.42
2017-03-24T00:45:36.104Z,38.35
2017-03-24T00:46:34.328Z,38.97
2017-03-24T00:47:32.610Z,44.68
2017-03-24T00:48:30.817Z,40.55
2017-03-24T00:49:29.046Z,45.40
2017-03-24T00:50:27.283Z,37.58
2017-03-24T00:51:26.248Z,42.50
2017-03-24T00:52:24.468Z,41.95
2017-03-24T00:53:22.702Z,41.30
2017-03-24T00:54:20.994Z,42.22
2017-03-24T00:55:19.241Z,41.65
2017-03-24T00:56:18.241Z,44.87
2017-03-24T00:57:16.453Z,42.07
2017-03-24T00:58:14.702Z,41.72
2017-03-24T00:59:12.981Z,44.02
2017-03-24T01:00:11.321Z,44.03
2017-03-24T01:01:09.613Z,41.38
2017-03-24T01:02:07.896Z,41.57
2017-03-24T01:03:06.175Z,42.10
2017-03-24T01:04:05.174Z,44.45
2017-03-24T01:05:03.466Z,44.77
2017-03-24T01:06:01.669Z,46.25
2017-03-24T01:06:59.879Z,42.53
2017-03-24T01:07:58.136Z,41.92
2017-03-24T01:08:56.373Z,46.00
2017-03-24T01:09:54.602Z,45.75
2017-03-24T01:10:52.845Z,41.85
2017-03-24T01:11:51.073Z,40.27
2017-03-24T01:12:50.053Z,43.53
2017-03-24T01:13:49.059Z,42.78
2017-03-24T01:14:47.290Z,41.80
2017-03-24T01:15:45.526Z,43.77
2017-03-24T01:16:43.736Z,45.92
2017-03-24T01:17:42.022Z,42.83
2017-03-24T01:18:40.995Z,46.53
2017-03-24T01:19:39.255Z,44.33
2017-03-24T01:20:37.469Z,43.38
2017-03-24T01:21:35.705Z,44.80
2017-03-24T01:22:34.054Z,43.42
2017-03-24T01:23:32.298Z,45.80
2017-03-24T01:24:30.540Z,46.92
2017-03-24T01:25:28.868Z,42.98
2017-03-24T01:26:27.145Z,42.73
2017-03-24T01:27:25.402Z,42.07
2017-03-24T01:28:23.679Z,42.82
2017-03-24T01:29:21.934Z,44.57
2017-03-24T01:30:20.216Z,43.72
2017-03-24T01:31:18.517Z,47.10
2017-03-24T01:32:16.781Z,45.63
2017-03-24T01:33:15.074Z,43.48
2017-03-24T01:34:13.338Z,42.02
2017-03-24T01:35:12.381Z,43.33
2017-03-24T01:36:11.429Z,45.52
2017-03-24T01:37:09.677Z,43.97
2017-03-24T01:38:07.929Z,45.23
2017-03-24T01:39:06.217Z,44.53
2017-03-24T01:40:04.505Z,47.62
2017-03-24T01:41:02.793Z,45.03
2017-03-24T01:42:01.091Z,42.43
2017-03-24T01:42:59.402Z,45.32
2017-03-24T01:43:57.640Z,43.02
2017-03-24T01:44:55.881Z,43.37
2017-03-24T01:45:54.117Z,43.70
2017-03-24T01:46:52.384Z,44.00
2017-03-24T01:47:50.609Z,42.77
2017-03-24T01:48:49.624Z,44.30
2017-03-24T01:49:47.857Z,45.52
2017-03-24T01:50:46.093Z,43.87
2017-03-24T01:51:44.329Z,47.33
2017-03-24T01:52:42.574Z,40.88
2017-03-24T01:53:41.596Z,45.85
2017-03-24T01:54:39.870Z,42.20
2017-03-24T01:55:38.157Z,41.73
2017-03-24T01:56:36.395Z,45.43
2017-03-24T01:57:34.702Z,40.37
2017-03-24T01:58:32.933Z,48.50
2017-03-24T01:59:31.161Z,43.72
2017-03-24T02:00:29.429Z,43.32
2017-03-24T02:01:27.746Z,42.57
2017-03-24T02:02:26.021Z,43.33
2017-03-24T02:03:24.250Z,43.18
2017-03-24T02:04:22.539Z,41.23
2017-03-24T02:05:20.781Z,43.58
2017-03-24T02:06:19.109Z,44.92
2017-03-24T02:07:17.405Z,44.38
2017-03-24T02:08:15.712Z,42.98
2017-03-24T02:09:14.037Z,43.87
2017-03-24T02:10:12.385Z,41.17
2017-03-24T02:11:10.685Z,42.80
2017-03-24T02:12:08.937Z,44.58
2017-03-24T02:13:07.249Z,43.13
2017-03-24T02:14:05.509Z,44.42
2017-03-24T02:15:04.333Z,43.13
2017-03-24T02:16:02.595Z,43.83
2017-03-24T02:17:01.705Z,42.38
2017-03-24T02:17:59.957Z,44.85
2017-03-24T02:18:58.937Z,45.77
2017-03-24T02:19:57.945Z,42.38
2017-03-24T02:20:56.221Z,42.52
2017-03-24T02:21:54.513Z,42.28
2017-03-24T02:22:52.797Z,37.65
2017-03-24T02:23:51.138Z,42.72
2017-03-24T02:24:49.373Z,41.07
2017-03-24T02:25:47.640Z,39.93
2017-03-24T02:26:45.885Z,40.18
2017-03-24T02:27:44.106Z,44.60
2017-03-24T02:28:42.411Z,43.08
2017-03-24T02:29:40.663Z,42.27
2017-03-24T02:30:38.936Z,44.60
2017-03-24T02:31:37.192Z,46.33
2017-03-24T02:32:35.480Z,41.43
2017-03-24T02:33:33.770Z,43.48
2017-03-24T02:34:32.013Z,44.63
2017-03-24T02:35:30.285Z,42.10
2017-03-24T02:36:28.564Z,41.30
2017-03-24T02:37:26.909Z,40.55
2017-03-24T02:38:25.901Z,42.43
2017-03-24T02:39:24.161Z,40.28
2017-03-24T02:40:22.388Z,42.20
2017-03-24T02:41:20.752Z,42.60
2017-03-24T02:42:19.049Z,39.40
2017-03-24T02:43:17.316Z,46.70
2017-03-24T02:44:16.313Z,43.83
2017-03-24T02:45:14.625Z,47.65
2017-03-24T02:46:12.960Z,43.38
2017-03-24T02:47:11.265Z,43.90
2017-03-24T02:48:09.559Z,38.88
2017-03-24T02:49:07.797Z,44.38
2017-03-24T02:50:06.796Z,43.47
2017-03-24T02:51:05.074Z,42.63
2017-03-24T02:52:04.149Z,42.08
2017-03-24T02:53:02.509Z,44.38
2017-03-24T02:54:00.791Z,38.27
2017-03-24T02:54:59.792Z,45.35
2017-03-24T02:55:58.077Z,39.47
2017-03-24T02:56:56.324Z,44.43
2017-03-24T02:57:55.302Z,44.80
2017-03-24T02:58:54.309Z,40.60
2017-03-24T02:59:52.546Z,43.12
2017-03-24T03:00:50.818Z,41.60
2017-03-24T03:01:49.886Z,41.00
2017-03-24T03:02:48.174Z,44.98
2017-03-24T03:03:47.184Z,40.57
2017-03-24T03:04:45.486Z,40.75
2017-03-24T03:05:43.796Z,43.07
2017-03-24T03:06:42.038Z,43.37
2017-03-24T03:07:40.286Z,43.40
2017-03-24T03:08:38.578Z,42.20
2017-03-24T03:09:36.897Z,40.67
2017-03-24T03:10:35.213Z,42.13
2017-03-24T03:11:34.193Z,37.40
2017-03-24T03:12:32.446Z,41.38
2017-03-24T03:13:30.713Z,38.23
2017-03-24T03:14:28.974Z,43.18
2017-03-24T03:15:27.237Z,47.48
2017-03-24T03:16:25.482Z,39.32
2017-03-24T03:17:23.784Z,40.47
2017-03-24T03:18:22.021Z,40.90
2017-03-24T03:19:20.212Z,41.80
2017-03-24T03:20:18.460Z,38.62
2017-03-24T03:21:16.645Z,40.45
2017-03-24T03:22:15.604Z,41.42
2017-03-24T03:23:13.873Z,43.95
2017-03-24T03:24:12.110Z,40.83
2017-03-24T03:25:10.313Z,41.62
2017-03-24T03:26:08.577Z,41.32
2017-03-24T03:27:06.842Z,44.13
2017-03-24T03:28:05.165Z,37.22
2017-03-24T03:29:03.398Z,38.10
2017-03-24T03:30:01.632Z,41.43
2017-03-24T03:30:59.869Z,44.50
2017-03-24T03:31:58.072Z,42.48
2017-03-24T03:32:56.333Z,41.73
2017-03-24T03:33:55.320Z,41.88
2017-03-24T03:34:53.545Z,41.52
2017-03-24T03:35:51.782Z,40.68
2017-03-24T03:36:49.998Z,40.02
2017-03-24T03:37:48.207Z,41.48
2017-03-24T03:38:47.173Z,38.32
2017-03-24T03:39:45.422Z,41.52
2017-03-24T03:40:43.653Z,38.78
2017-03-24T03:41:41.917Z,43.53
2017-03-24T03:42:40.126Z,44.97
2017-03-24T03:43:38.357Z,42.07
2017-03-24T03:44:36.656Z,39.83
2017-03-24T03:45:34.877Z,42.70
2017-03-24T03:46:33.094Z,43.85
2017-03-24T03:47:31.349Z,40.60
2017-03-24T03:48:29.540Z,39.25
2017-03-24T03:49:27.805Z,45.08
2017-03-24T03:50:26.020Z,41.38
2017-03-24T03:51:25.054Z,41.52
2017-03-24T03:52:23.357Z,42.48
2017-03-24T03:53:21.647Z,44.17
2017-03-24T03:54:19.901Z,41.73
2017-03-24T03:55:18.141Z,42.48
2017-03-24T03:56:17.129Z,44.80
2017-03-24T03:57:15.380Z,41.05
2017-03-24T03:58:14.396Z,44.70
2017-03-24T03:59:12.645Z,41.05
2017-03-24T04:00:10.919Z,42.48
2017-03-24T04:01:09.189Z,43.13
2017-03-24T04:02:07.452Z,42.50
2017-03-24T04:03:05.725Z,39.20
2017-03-24T04:04:03.974Z,41.05
2017-03-24T04:05:02.242Z,42.45
2017-03-24T04:06:00.472Z,39.50
2017-03-24T04:06:58.696Z,42.50
2017-03-24T04:07:56.901Z,41.87
2017-03-24T04:08:55.926Z,44.93
2017-03-24T04:09:54.150Z,42.20
2017-03-24T04:10:52.348Z,41.17
2017-03-24T04:11:50.557Z,45.58
2017-03-24T04:12:48.778Z,40.40
2017-03-24T04:13:46.994Z,37.90
2017-03-24T04:14:45.265Z,38.82
2017-03-24T04:15:43.477Z,37.87
2017-03-24T04:16:45.429Z,40.98
2017-03-24T04:17:43.643Z,45.23
2017-03-24T04:18:41.869Z,45.00
2017-03-24T04:19:40.081Z,37.60
2017-03-24T04:20:38.338Z,40.00
2017-03-24T04:21:36.572Z,37.92
2017-03-24T04:22:34.785Z,37.12
2017-03-24T04:23:33.002Z,40.70
2017-03-24T04:24:31.237Z,40.77
2017-03-24T04:25:30.228Z,39.58
2017-03-24T04:26:28.505Z,41.28
2017-03-24T04:27:26.753Z,34.77
2017-03-24T04:28:25.015Z,38.57
2017-03-24T04:29:24.057Z,35.90
2017-03-24T04:30:22.361Z,36.12
2017-03-24T04:31:20.617Z,40.23
2017-03-24T04:32:18.921Z,35.08
2017-03-24T04:33:17.126Z,39.67
2017-03-24T04:34:15.401Z,34.98
2017-03-24T04:35:13.664Z,36.72
2017-03-24T04:36:11.928Z,41.47
2017-03-24T04:37:10.197Z,35.58
2017-03-24T04:38:08.469Z,35.10
2017-03-24T04:39:06.701Z,36.68
2017-03-24T04:40:04.968Z,37.30
2017-03-24T04:41:03.165Z,36.10
2017-03-24T04:42:01.441Z,35.27
2017-03-24T04:42:59.657Z,39.48
2017-03-24T04:43:57.893Z,38.33
2017-03-24T04:44:56.858Z,33.93
2017-03-24T04:45:55.068Z,32.13
2017-03-24T04:46:53.286Z,32.88
2017-03-24T04:47:51.503Z,32.77
2017-03-24T04:48:49.717Z,33.92
2017-03-24T04:49:48.004Z,34.68
2017-03-24T04:50:46.216Z,37.55
2017-03-24T04:51:44.427Z,35.52
2017-03-24T04:52:43.393Z,35.97
2017-03-24T04:53:41.633Z,35.97
2017-03-24T04:54:39.853Z,34.27
2017-03-24T04:55:38.077Z,33.93
2017-03-24T04:56:36.306Z,37.68
2017-03-24T04:57:34.569Z,37.68
2017-03-24T04:58:32.818Z,34.55
2017-03-24T04:59:31.018Z,37.98
2017-03-24T05:00:29.218Z,32.08
2017-03-24T05:01:27.512Z,34.45
2017-03-24T05:02:25.766Z,33.35
2017-03-24T05:03:23.981Z,30.42
2017-03-24T05:04:22.210Z,35.70
2017-03-24T05:05:20.472Z,34.55
2017-03-24T05:06:18.727Z,33.70
2017-03-24T05:07:16.993Z,36.82
2017-03-24T05:08:15.314Z,33.80
2017-03-24T05:09:13.561Z,33.90
2017-03-24T05:10:11.801Z,35.95
2017-03-24T05:11:10.105Z,32.75
2017-03-24T05:12:08.333Z,36.00
2017-03-24T05:13:06.585Z,35.80
2017-03-24T05:14:04.834Z,36.18
2017-03-24T05:15:03.104Z,34.27
2017-03-24T05:16:01.354Z,33.23
2017-03-24T05:16:59.572Z,32.10
2017-03-24T05:17:57.804Z,33.05
2017-03-24T05:18:56.030Z,33.13
2017-03-24T05:19:54.421Z,32.40
2017-03-24T05:20:52.660Z,30.87
2017-03-24T05:21:50.877Z,31.78
2017-03-24T05:22:49.092Z,31.50
2017-03-24T05:23:47.293Z,32.42
2017-03-24T05:24:45.506Z,31.97
2017-03-24T05:25:43.705Z,35.42
2017-03-24T05:26:41.945Z,35.43
2017-03-24T05:27:40.161Z,31.90
2017-03-24T05:28:39.231Z,32.43
2017-03-24T05:29:37.441Z,32.25
2017-03-24T05:30:36.454Z,31.75
2017-03-24T05:31:34.714Z,30.87
2017-03-24T05:32:33.009Z,34.42
2017-03-24T05:33:31.333Z,31.30
2017-03-24T05:34:29.583Z,31.28
2017-03-24T05:35:28.577Z,32.00
2017-03-24T05:36:26.838Z,30.33
2017-03-24T05:37:25.169Z,35.18
2017-03-24T05:38:23.466Z,29.98
2017-03-24T05:39:22.503Z,31.53
2017-03-24T05:40:20.742Z,31.03
2017-03-24T05:41:18.990Z,33.23
2017-03-24T05:42:17.278Z,33.12
2017-03-24T05:43:15.511Z,31.32
2017-03-24T05:44:13.809Z,31.72
2017-03-24T05:45:12.082Z,30.45
2017-03-24T05:46:10.334Z,33.23
2017-03-24T05:47:08.558Z,30.33
2017-03-24T05:48:06.816Z,34.58
2017-03-24T05:49:05.085Z,31.42
2017-03-24T05:50:03.345Z,28.23
2017-03-24T05:51:01.614Z,32.08
2017-03-24T05:51:59.874Z,31.50
2017-03-24T05:52:58.105Z,30.42
2017-03-24T05:53:56.345Z,30.37
2017-03-24T05:54:55.330Z,29.93
2017-03-24T05:55:53.581Z,32.97
2017-03-24T05:56:51.809Z,31.67
2017-03-24T05:57:50.001Z,30.80
2017-03-24T05:58:48.241Z,31.02
2017-03-24T05:59:46.497Z,30.33
2017-03-24T06:00:44.780Z,27.67
2017-03-24T06:01:43.027Z,32.67
2017-03-24T06:02:41.250Z,33.03
2017-03-24T06:03:40.216Z,29.62
2017-03-24T06:04:38.475Z,28.52
2017-03-24T06:05:36.732Z,29.30
2017-03-24T06:06:34.989Z,29.05
2017-03-24T06:07:33.276Z,32.60
2017-03-24T06:08:32.258Z,31.68
2017-03-24T06:09:30.557Z,27.45
2017-03-24T06:10:28.782Z,27.13
2017-03-24T06:11:27.033Z,29.73
2017-03-24T06:12:25.309Z,27.28
2017-03-24T06:13:23.542Z,35.55
2017-03-24T06:14:21.786Z,30.35
2017-03-24T06:15:20.076Z,26.95
2017-03-24T06:16:18.394Z,29.12
2017-03-24T06:17:16.661Z,26.72
2017-03-24T06:18:14.885Z,29.60
2017-03-24T06:19:13.182Z,30.12
2017-03-24T06:20:11.446Z,31.80
2017-03-24T06:21:09.735Z,29.03
2017-03-24T06:22:08.041Z,31.92
2017-03-24T06:23:06.289Z,30.15
2017-03-24T06:24:04.566Z,27.75
2017-03-24T06:25:02.837Z,28.43
2017-03-24T06:26:01.097Z,29.48
2017-03-24T06:26:59.322Z,26.72
2017-03-24T06:27:57.543Z,26.17
2017-03-24T06:28:55.814Z,25.77
2017-03-24T06:29:54.026Z,27.88
2017-03-24T06:30:52.221Z,28.58
2017-03-24T06:31:50.464Z,32.55
2017-03-24T06:32:48.654Z,29.10
2017-03-24T06:33:46.866Z,27.85
2017-03-24T06:34:45.099Z,28.87
2017-03-24T06:35:43.318Z,26.05
2017-03-24T06:36:41.513Z,28.35
2017-03-24T06:37:39.738Z,26.87
2017-03-24T06:38:37.955Z,32.12
2017-03-24T06:39:36.617Z,28.50
2017-03-24T06:40:34.833Z,32.88
2017-03-24T06:41:33.108Z,27.97
2017-03-24T06:42:31.306Z,29.25
2017-03-24T06:43:30.566Z,28.85
2017-03-24T06:44:28.804Z,27.15
2017-03-24T06:45:27.058Z,28.93
2017-03-24T06:46:25.290Z,27.72
2017-03-24T06:47:24.285Z,29.08
2017-03-24T06:48:22.528Z,26.78
2017-03-24T06:49:20.773Z,25.60
2017-03-24T06:50:19.012Z,29.22
2017-03-24T06:51:17.238Z,27.10
2017-03-24T06:52:15.453Z,29.48
2017-03-24T06:53:13.737Z,26.82
2017-03-24T06:54:11.974Z,28.42
2017-03-24T06:55:10.198Z,28.48
2017-03-24T06:56:08.432Z,27.87
2017-03-24T06:57:06.664Z,24.28
2017-03-24T06:58:04.934Z,27.90
2017-03-24T06:59:03.154Z,32.28
2017-03-24T07:00:02.104Z,25.95
2017-03-24T07:01:00.316Z,25.50
2017-03-24T07:01:58.525Z,24.93
2017-03-24T07:02:56.750Z,26.22
2017-03-24T07:03:55.009Z,27.20
2017-03-24T07:04:53.229Z,27.23
2017-03-24T07:05:51.481Z,27.42
2017-03-24T07:06:49.712Z,23.43
2017-03-24T07:07:48.641Z,24.70
2017-03-24T07:08:46.857Z,25.82
2017-03-24T07:09:45.101Z,24.68
2017-03-24T07:10:43.307Z,24.75
2017-03-24T07:11:41.537Z,23.55
2017-03-24T07:12:39.751Z,26.33
2017-03-24T07:13:37.981Z,25.77
2017-03-24T07:14:36.194Z,25.65
2017-03-24T07:15:34.409Z,22.83
2017-03-24T07:16:32.665Z,23.45
2017-03-24T07:17:30.869Z,21.48
2017-03-24T07:18:29.092Z,25.45
2017-03-24T07:19:27.317Z,23.63
2017-03-24T07:20:25.613Z,25.87
2017-03-24T07:21:23.829Z,24.45
2017-03-24T07:22:22.093Z,24.82
2017-03-24T07:23:20.342Z,23.37
2017-03-24T07:24:18.577Z,24.20
2017-03-24T07:25:17.605Z,28.30
2017-03-24T07:26:15.798Z,22.93
2017-03-24T07:27:14.062Z,22.50
2017-03-24T07:28:12.286Z,22.38
2017-03-24T07:29:10.550Z,23.47
2017-03-24T07:30:08.787Z,34.80
2017-03-24T07:31:07.045Z,27.92
2017-03-24T07:32:05.281Z,28.57
2017-03-24T07:33:03.519Z,30.48
2017-03-24T07:34:01.757Z,22.57
2017-03-24T07:35:00.757Z,23.98
2017-03-24T07:35:58.967Z,34.65
2017-03-24T07:36:57.185Z,33.38
2017-03-24T07:37:55.456Z,27.33
2017-03-24T07:38:53.707Z,24.93
2017-03-24T07:39:51.920Z,27.43
2017-03-24T07:40:50.838Z,27.28
2017-03-24T07:41:49.050Z,28.82
2017-03-24T07:42:47.286Z,24.68
2017-03-24T07:43:45.498Z,26.90
2017-03-24T07:44:43.741Z,24.20
2017-03-24T07:45:41.937Z,27.02
2017-03-24T07:46:40.173Z,26.98
2017-03-24T07:47:38.441Z,24.68
2017-03-24T07:48:36.694Z,24.50
2017-03-24T07:49:34.921Z,25.43
2017-03-24T07:50:33.137Z,26.02
2017-03-24T07:51:31.334Z,24.90
2017-03-24T07:52:29.581Z,29.82
2017-03-24T07:53:27.814Z,23.32
2017-03-24T07:54:26.062Z,21.57
2017-03-24T07:55:25.053Z,25.25
2017-03-24T07:56:23.391Z,25.22
2017-03-24T07:57:21.623Z,24.55
2017-03-24T07:58:19.848Z,24.45
2017-03-24T07:59:18.032Z,27.72
2017-03-24T08:00:16.245Z,24.65
2017-03-24T08:01:14.529Z,22.77
2017-03-24T08:02:12.789Z,23.45
2017-03-24T08:03:11.001Z,24.17
2017-03-24T08:04:09.262Z,24.60
2017-03-24T08:05:07.477Z,27.43
2017-03-24T08:06:05.712Z,27.57
2017-03-24T08:07:04.061Z,28.40
2017-03-24T08:08:02.332Z,24.85
2017-03-24T08:09:00.594Z,26.78
2017-03-24T08:09:58.901Z,26.02
2017-03-24T08:10:57.172Z,26.07
2017-03-24T08:11:55.452Z,24.17
2017-03-24T08:12:53.769Z,27.77
2017-03-24T08:13:52.011Z,28.07
2017-03-24T08:14:50.210Z,25.68
2017-03-24T08:15:48.549Z,29.93
2017-03-24T08:16:47.513Z,26.37
2017-03-24T08:17:45.819Z,26.62
2017-03-24T08:18:44.024Z,26.37
2017-03-24T08:19:42.248Z,26.62
2017-03-24T08:20:40.492Z,27.17
2017-03-24T08:21:38.717Z,21.62
2017-03-24T08:22:36.984Z,22.92
2017-03-24T08:23:35.189Z,29.50
2017-03-24T08:24:33.442Z,27.60
2017-03-24T08:25:31.753Z,24.18
2017-03-24T08:26:29.980Z,25.18
2017-03-24T08:27:28.988Z,27.00
2017-03-24T08:28:27.192Z,24.30
2017-03-24T08:29:25.444Z,25.18
2017-03-24T08:30:23.709Z,21.95
2017-03-24T08:31:21.974Z,22.97
2017-03-24T08:32:20.208Z,20.80
2017-03-24T08:33:18.457Z,21.90
2017-03-24T08:34:16.676Z,26.23
2017-03-24T08:35:14.944Z,22.72
2017-03-24T08:36:13.209Z,21.38
2017-03-24T08:37:11.500Z,19.97
2017-03-24T08:38:09.757Z,23.53
2017-03-24T08:39:08.006Z,22.57
2017-03-24T08:40:06.240Z,20.30
2017-03-24T08:41:04.471Z,20.37
2017-03-24T08:42:02.700Z,18.37
2017-03-24T08:43:00.917Z,22.65
2017-03-24T08:43:59.128Z,24.08
2017-03-24T08:44:57.329Z,19.38
2017-03-24T08:45:55.529Z,18.85
2017-03-24T08:46:53.750Z,18.98
2017-03-24T08:47:52.004Z,15.82
2017-03-24T08:48:50.213Z,18.25
2017-03-24T08:49:49.172Z,17.38
2017-03-24T08:50:47.376Z,21.60
2017-03-24T08:51:45.596Z,21.18
2017-03-24T08:52:44.548Z,19.10
2017-03-24T08:53:42.792Z,18.22
2017-03-24T08:54:41.026Z,20.73
2017-03-24T08:55:39.213Z,16.18
2017-03-24T08:56:37.430Z,17.80
2017-03-24T08:57:35.697Z,19.48
2017-03-24T08:58:33.946Z,19.58
2017-03-24T08:59:32.892Z,18.02
2017-03-24T09:00:31.189Z,19.62
2017-03-24T09:01:29.446Z,17.58
2017-03-24T09:02:27.688Z,20.13
2017-03-24T09:03:25.957Z,19.80
2017-03-24T09:04:24.191Z,18.75
2017-03-24T09:05:22.451Z,20.90
2017-03-24T09:06:21.428Z,19.40
2017-03-24T09:07:19.680Z,19.12
2017-03-24T09:08:17.937Z,19.03
2017-03-24T09:09:16.172Z,17.73
2017-03-24T09:10:14.468Z,18.18
2017-03-24T09:11:12.696Z,18.33
2017-03-24T09:12:10.968Z,18.90
2017-03-24T09:13:09.226Z,16.95
2017-03-24T09:14:07.481Z,18.75
2017-03-24T09:15:06.497Z,18.20
2017-03-24T09:16:04.700Z,16.87
2017-03-24T09:17:02.921Z,20.68
2017-03-24T09:18:01.196Z,21.05
2017-03-24T09:18:59.421Z,21.28
2017-03-24T09:19:57.616Z,20.03
2017-03-24T09:20:55.823Z,18.68
2017-03-24T09:21:54.085Z,20.17
2017-03-24T09:22:52.308Z,20.13
2017-03-24T09:23:50.514Z,20.73
2017-03-24T09:24:48.717Z,18.27
2017-03-24T09:25:47.659Z,17.58
2017-03-24T09:26:45.849Z,20.75
2017-03-24T09:27:44.081Z,20.60
2017-03-24T09:28:42.282Z,19.85
2017-03-24T09:29:41.268Z,17.05
2017-03-24T09:30:40.235Z,19.30
2017-03-24T09:31:38.468Z,19.70
2017-03-24T09:32:36.752Z,17.55
2017-03-24T09:33:34.985Z,18.68
2017-03-24T09:34:33.245Z,16.97
2017-03-24T09:35:31.488Z,18.25
2017-03-24T09:36:30.433Z,15.90
2017-03-24T09:37:29.373Z,17.87
2017-03-24T09:38:27.581Z,16.32
2017-03-24T09:39:25.801Z,16.72
2017-03-24T09:40:24.020Z,16.92
2017-03-24T09:41:22.272Z,13.88
2017-03-24T09:42:20.513Z,15.08
2017-03-24T09:43:18.736Z,18.65
2017-03-24T09:44:17.718Z,20.98
2017-03-24T09:45:16.695Z,19.48
2017-03-24T09:46:15.689Z,17.98
2017-03-24T09:47:13.920Z,15.70
2017-03-24T09:48:12.122Z,15.68
2017-03-24T09:49:10.493Z,15.93
2017-03-24T09:50:08.722Z,15.80
2017-03-24T09:51:07.680Z,17.55
2017-03-24T09:52:05.924Z,16.20
2017-03-24T09:53:04.189Z,18.18
2017-03-24T09:54:02.459Z,18.28
2017-03-24T09:55:00.680Z,16.45
2017-03-24T09:55:58.984Z,15.23
2017-03-24T09:56:57.597Z,16.75
2017-03-24T09:57:55.768Z,16.80
2017-03-24T09:58:53.968Z,17.22
2017-03-24T09:59:52.163Z,16.43
2017-03-24T10:00:50.428Z,16.02
2017-03-24T10:01:48.680Z,16.57
2017-03-24T10:02:46.944Z,16.07
2017-03-24T10:03:45.135Z,16.57
2017-03-24T10:04:43.410Z,20.08
2017-03-24T10:05:41.636Z,17.83
2017-03-24T10:06:39.865Z,16.02
2017-03-24T10:07:38.092Z,19.27
2017-03-24T10:08:36.332Z,15.62
2017-03-24T10:09:35.276Z,16.67
2017-03-24T10:10:33.514Z,18.75
2017-03-24T10:11:31.704Z,16.35
2017-03-24T10:12:29.943Z,14.58
2017-03-24T10:13:28.173Z,16.35
2017-03-24T10:14:27.116Z,15.88
2017-03-24T10:15:25.359Z,16.92
2017-03-24T10:16:23.592Z,15.95
2017-03-24T10:17:21.812Z,15.37
2017-03-24T10:18:20.041Z,15.35
2017-03-24T10:19:18.240Z,16.28
2017-03-24T10:20:16.508Z,15.67
2017-03-24T10:21:14.760Z,16.30
2017-03-24T10:22:13.036Z,16.45
2017-03-24T10:23:11.980Z,15.03
2017-03-24T10:24:10.216Z,16.07
2017-03-24T10:25:08.389Z,15.73
2017-03-24T10:26:06.581Z,16.18
2017-03-24T10:27:04.812Z,14.75
2017-03-24T10:28:03.076Z,13.87
2017-03-24T10:29:01.281Z,15.18
2017-03-24T10:29:59.477Z,14.50
2017-03-24T10:30:57.719Z,15.87
2017-03-24T10:31:55.944Z,17.15
2017-03-24T10:32:54.213Z,14.58
2017-03-24T10:33:52.449Z,15.02
2017-03-24T10:34:50.678Z,15.95
2017-03-24T10:35:48.932Z,13.95
2017-03-24T10:36:47.140Z,15.25
2017-03-24T10:37:45.327Z,13.80
2017-03-24T10:38:43.529Z,15.23
2017-03-24T10:39:41.797Z,15.45
2017-03-24T10:40:40.019Z,15.42
2017-03-24T10:41:38.279Z,16.07
2017-03-24T10:42:36.483Z,15.62
2017-03-24T10:43:34.712Z,19.35
2017-03-24T10:44:32.940Z,15.15
2017-03-24T10:45:31.189Z,15.87
2017-03-24T10:46:29.437Z,16.02
2017-03-24T10:47:27.621Z,16.30
2017-03-24T10:48:25.836Z,15.40
2017-03-24T10:49:24.029Z,15.48
2017-03-24T10:50:22.953Z,15.55
2017-03-24T10:51:21.216Z,15.25
2017-03-24T10:52:19.433Z,15.97
2017-03-24T10:53:17.669Z,16.08
2017-03-24T10:54:15.908Z,15.22
2017-03-24T10:55:14.141Z,16.68
2017-03-24T10:56:12.376Z,15.45
2017-03-24T10:57:10.654Z,15.88
2017-03-24T10:58:08.862Z,14.28
2017-03-24T10:59:07.112Z,15.92
2017-03-24T11:00:05.343Z,15.40
2017-03-24T11:01:03.615Z,14.77
2017-03-24T11:02:02.584Z,15.55
2017-03-24T11:03:00.833Z,16.80
2017-03-24T11:03:59.064Z,14.65
2017-03-24T11:04:57.293Z,15.38
2017-03-24T11:05:56.232Z,14.67
2017-03-24T11:06:54.441Z,14.95
2017-03-24T11:07:52.633Z,16.75
2017-03-24T11:08:50.856Z,15.28
2017-03-24T11:09:49.060Z,16.70
2017-03-24T11:10:47.260Z,15.60
2017-03-24T11:11:45.482Z,15.23
2017-03-24T11:12:44.424Z,16.72
2017-03-24T11:13:42.637Z,15.48
2017-03-24T11:14:41.605Z,16.40
2017-03-24T11:15:39.854Z,14.88
2017-03-24T11:16:38.053Z,15.95
2017-03-24T11:17:36.264Z,14.15
2017-03-24T11:18:34.493Z,15.57
2017-03-24T11:19:32.709Z,15.80
2017-03-24T11:20:30.945Z,15.53
2017-03-24T11:21:29.162Z,17.00
2017-03-24T11:22:27.396Z,18.08
2017-03-24T11:23:25.617Z,16.92
2017-03-24T11:24:23.860Z,15.58
2017-03-24T11:25:22.088Z,16.17
2017-03-24T11:26:20.341Z,16.87
2017-03-24T11:27:18.576Z,13.82
2017-03-24T11:28:16.828Z,15.37
2017-03-24T11:29:15.029Z,14.92
2017-03-24T11:30:13.241Z,17.13
2017-03-24T11:31:12.204Z,14.12
2017-03-24T11:32:10.513Z,14.22
2017-03-24T11:33:08.820Z,14.45
2017-03-24T11:34:07.093Z,18.42
2017-03-24T11:35:05.385Z,18.38
2017-03-24T11:36:04.388Z,17.85
2017-03-24T11:37:02.652Z,20.32
2017-03-24T11:38:00.884Z,17.35
2017-03-24T11:38:59.132Z,15.78
2017-03-24T11:39:58.080Z,19.60
2017-03-24T11:40:56.316Z,17.98
2017-03-24T11:41:55.299Z,17.25
2017-03-24T11:42:53.564Z,17.15
2017-03-24T11:43:51.812Z,15.97
2017-03-24T11:44:50.025Z,18.00
2017-03-24T11:45:48.224Z,17.83
2017-03-24T11:46:46.481Z,16.85
2017-03-24T11:47:44.696Z,17.22
2017-03-24T11:48:42.924Z,15.57
2017-03-24T11:49:41.176Z,15.45
2017-03-24T11:50:39.397Z,16.17
2017-03-24T11:51:37.657Z,17.28
2017-03-24T11:52:35.880Z,16.35
2017-03-24T11:53:34.096Z,17.65
2017-03-24T11:54:32.313Z,16.93
2017-03-24T11:55:30.557Z,15.20
2017-03-24T11:56:28.783Z,17.60
2017-03-24T11:57:27.752Z,16.50
2017-03-24T11:58:25.984Z,16.45
2017-03-24T11:59:24.277Z,17.13
2017-03-24T12:00:22.524Z,16.37
2017-03-24T12:01:20.819Z,14.60
2017-03-24T12:02:19.128Z,16.67
2017-03-24T12:03:17.387Z,15.90
2017-03-24T12:04:15.597Z,15.53
2017-03-24T12:05:13.849Z,16.55
2017-03-24T12:06:12.085Z,15.62
2017-03-24T12:07:10.324Z,15.65
2017-03-24T12:08:08.581Z,17.75
2017-03-24T12:09:06.833Z,16.08
2017-03-24T12:10:05.097Z,16.70
2017-03-24T12:11:03.345Z,16.00
2017-03-24T12:12:01.565Z,18.10
2017-03-24T12:12:59.788Z,15.73
2017-03-24T12:13:58.001Z,16.38
2017-03-24T12:14:56.220Z,15.98
2017-03-24T12:15:54.442Z,16.80
2017-03-24T12:16:52.688Z,16.47
2017-03-24T12:17:50.915Z,14.95
2017-03-24T12:18:49.145Z,16.20
2017-03-24T12:19:47.355Z,16.90
2017-03-24T12:20:45.572Z,16.25
2017-03-24T12:21:43.792Z,16.50
2017-03-24T12:22:42.017Z,15.83
2017-03-24T12:23:40.236Z,15.38
2017-03-24T12:24:44.110Z,17.12
2017-03-24T12:25:42.345Z,17.02
2017-03-24T12:26:40.596Z,19.88
2017-03-24T12:27:38.801Z,16.05
2017-03-24T12:28:37.041Z,16.77
2017-03-24T12:29:35.287Z,16.80
2017-03-24T12:30:33.489Z,16.02
2017-03-24T12:31:31.686Z,16.07